sensor_id;sensor_type;location;lat;lon;timestamp;pressure;altitude;pressure_sealevel;temperature;humidity
50384;BME280;36301;48.310;12.786;2024-02-14T00:02:03;96690.78;;;4.55;87.25
50384;BME280;36301;48.310;12.786;2024-02-14T00:04:32;96695.28;;;4.63;87.14
50384;BME280;36301;48.310;12.786;2024-02-14T00:06:58;96705.44;;;4.56;86.28
50384;BME280;36301;48.310;12.786;2024-02-14T00:09:25;96699.13;;;4.48;86.07
50384;BME280;36301;48.310;12.786;2024-02-14T00:11:52;96699.88;;;4.40;86.58
50384;BME280;36301;48.310;12.786;2024-02-14T00:14:18;96699.25;;;4.34;86.48
50384;BME280;36301;48.310;12.786;2024-02-14T00:16:46;96700.50;;;4.37;86.41
50384;BME280;36301;48.310;12.786;2024-02-14T00:19:13;96697.72;;;4.33;87.04
50384;BME280;36301;48.310;12.786;2024-02-14T00:21:40;96688.91;;;4.29;86.81
50384;BME280;36301;48.310;12.786;2024-02-14T00:24:07;96698.50;;;4.34;86.68
50384;BME280;36301;48.310;12.786;2024-02-14T00:26:34;96687.22;;;4.25;87.64
50384;BME280;36301;48.310;12.786;2024-02-14T00:29:01;96693.41;;;4.29;86.49
50384;BME280;36301;48.310;12.786;2024-02-14T00:31:28;96692.31;;;4.30;86.29
50384;BME280;36301;48.310;12.786;2024-02-14T00:33:55;96696.16;;;4.24;86.14
50384;BME280;36301;48.310;12.786;2024-02-14T00:36:22;96705.41;;;4.21;87.00
50384;BME280;36301;48.310;12.786;2024-02-14T00:38:49;96702.63;;;4.18;87.64
50384;BME280;36301;48.310;12.786;2024-02-14T00:41:15;96702.00;;;4.21;87.35
50384;BME280;36301;48.310;12.786;2024-02-14T00:43:42;96698.00;;;4.14;87.42
50384;BME280;36301;48.310;12.786;2024-02-14T00:46:09;96702.63;;;4.18;87.56
50384;BME280;36301;48.310;12.786;2024-02-14T00:48:35;96710.94;;;4.20;88.06
50384;BME280;36301;48.310;12.786;2024-02-14T00:51:02;96704.00;;;4.15;87.77
50384;BME280;36301;48.310;12.786;2024-02-14T00:53:29;96704.00;;;4.15;88.24
50384;BME280;36301;48.310;12.786;2024-02-14T00:55:56;96704.31;;;4.13;86.77
50384;BME280;36301;48.310;12.786;2024-02-14T00:58:22;96704.31;;;4.13;87.45
50384;BME280;36301;48.310;12.786;2024-02-14T01:00:49;96703.06;;;4.02;87.45
50384;BME280;36301;48.310;12.786;2024-02-14T01:03:15;96714.75;;;4.05;88.16
50384;BME280;36301;48.310;12.786;2024-02-14T01:05:43;96714.16;;;4.08;88.94
50384;BME280;36301;48.310;12.786;2024-02-14T01:08:10;96717.41;;;4.13;88.60
50384;BME280;36301;48.310;12.786;2024-02-14T01:10:37;96712.63;;;4.15;88.03
50384;BME280;36301;48.310;12.786;2024-02-14T01:13:03;96707.53;;;4.02;88.39
50384;BME280;36301;48.310;12.786;2024-02-14T01:15:30;96711.09;;;4.14;89.25
50384;BME280;36301;48.310;12.786;2024-02-14T01:17:57;96712.63;;;4.15;89.04
50384;BME280;36301;48.310;12.786;2024-02-14T01:20:24;96710.31;;;4.14;89.66
50384;BME280;36301;48.310;12.786;2024-02-14T01:22:50;96708.81;;;4.30;89.06
50384;BME280;36301;48.310;12.786;2024-02-14T01:25:17;96713.41;;;4.25;89.60
50384;BME280;36301;48.310;12.786;2024-02-14T01:27:44;96713.00;;;4.31;89.76
50384;BME280;36301;48.310;12.786;2024-02-14T01:30:11;96707.13;;;4.34;88.83
50384;BME280;36301;48.310;12.786;2024-02-14T01:32:37;96721.16;;;4.38;88.78
50384;BME280;36301;48.310;12.786;2024-02-14T01:35:05;96713.59;;;4.46;88.71
50384;BME280;36301;48.310;12.786;2024-02-14T01:37:33;96709.75;;;4.43;88.06
50384;BME280;36301;48.310;12.786;2024-02-14T01:40:00;96710.38;;;4.40;87.30
50384;BME280;36301;48.310;12.786;2024-02-14T01:42:27;96706.34;;;4.34;88.14
50384;BME280;36301;48.310;12.786;2024-02-14T01:44:54;96708.03;;;4.30;88.24
50384;BME280;36301;48.310;12.786;2024-02-14T01:47:23;96706.81;;;4.45;89.85
50384;BME280;36301;48.310;12.786;2024-02-14T01:49:50;96702.03;;;4.38;88.75
50384;BME280;36301;48.310;12.786;2024-02-14T01:52:16;96703.75;;;4.42;88.45
50384;BME280;36301;48.310;12.786;2024-02-14T01:54:43;96712.06;;;4.45;89.37
50384;BME280;36301;48.310;12.786;2024-02-14T01:57:09;96706.22;;;4.48;88.57
50384;BME280;36301;48.310;12.786;2024-02-14T01:59:37;96705.59;;;4.51;88.73
50384;BME280;36301;48.310;12.786;2024-02-14T02:02:04;96713.63;;;4.54;88.39
50384;BME280;36301;48.310;12.786;2024-02-14T02:04:33;96722.25;;;4.55;88.94
50384;BME280;36301;48.310;12.786;2024-02-14T02:07:01;96711.91;;;4.50;87.99
50384;BME280;36301;48.310;12.786;2024-02-14T02:09:27;96715.16;;;4.55;88.59
50384;BME280;36301;48.310;12.786;2024-02-14T02:11:54;96716.06;;;4.51;88.59
50384;BME280;36301;48.310;12.786;2024-02-14T02:14:22;96713.94;;;4.53;88.18
50384;BME280;36301;48.310;12.786;2024-02-14T02:16:49;96718.41;;;4.52;88.75
50384;BME280;36301;48.310;12.786;2024-02-14T02:19:15;96719.34;;;4.65;89.61
50384;BME280;36301;48.310;12.786;2024-02-14T02:21:43;96720.09;;;4.65;88.48
50384;BME280;36301;48.310;12.786;2024-02-14T02:24:12;96719.81;;;4.58;89.06
50384;BME280;36301;48.310;12.786;2024-02-14T02:26:39;96718.72;;;4.42;89.32
50384;BME280;36301;48.310;12.786;2024-02-14T02:29:05;96719.94;;;4.53;90.07
50384;BME280;36301;48.310;12.786;2024-02-14T02:31:32;96723.81;;;4.64;89.21
50384;BME280;36301;48.310;12.786;2024-02-14T02:33:59;96726.75;;;4.72;89.20
50384;BME280;36301;48.310;12.786;2024-02-14T02:36:26;96718.88;;;4.63;89.40
50384;BME280;36301;48.310;12.786;2024-02-14T02:38:56;96729.53;;;4.84;89.21
50384;BME280;36301;48.310;12.786;2024-02-14T02:41:24;96732.31;;;4.87;88.50
50384;BME280;36301;48.310;12.786;2024-02-14T02:43:51;96728.75;;;4.83;87.74
50384;BME280;36301;48.310;12.786;2024-02-14T02:46:19;96728.00;;;4.83;89.29
50384;BME280;36301;48.310;12.786;2024-02-14T02:48:46;96726.13;;;4.83;89.05
50384;BME280;36301;48.310;12.786;2024-02-14T02:51:16;96729.22;;;4.77;89.63
50384;BME280;36301;48.310;12.786;2024-02-14T02:53:43;96720.56;;;4.85;89.68
50384;BME280;36301;48.310;12.786;2024-02-14T02:56:10;96727.34;;;5.12;87.82
50384;BME280;36301;48.310;12.786;2024-02-14T02:58:39;96733.06;;;5.14;87.42
50384;BME280;36301;48.310;12.786;2024-02-14T03:01:08;96735.53;;;5.19;86.73
50384;BME280;36301;48.310;12.786;2024-02-14T03:03:36;96733.50;;;5.25;87.21
50384;BME280;36301;48.310;12.786;2024-02-14T03:06:05;96729.63;;;5.31;86.08
50384;BME280;36301;48.310;12.786;2024-02-14T03:08:31;96729.81;;;5.08;87.19
50384;BME280;36301;48.310;12.786;2024-02-14T03:11:05;96717.91;;;5.28;86.06
50384;BME280;36301;48.310;12.786;2024-02-14T03:13:32;96726.22;;;5.30;85.86
50384;BME280;36301;48.310;12.786;2024-02-14T03:15:59;96722.06;;;5.38;85.06
50384;BME280;36301;48.310;12.786;2024-02-14T03:18:26;96721.56;;;5.53;84.58
50384;BME280;36301;48.310;12.786;2024-02-14T03:20:52;96719.88;;;5.49;84.31
50384;BME280;36301;48.310;12.786;2024-02-14T03:23:22;96717.41;;;5.35;83.54
50384;BME280;36301;48.310;12.786;2024-02-14T03:25:49;96724.47;;;5.60;83.51
50384;BME280;36301;48.310;12.786;2024-02-14T03:28:17;96729.22;;;5.67;82.77
50384;BME280;36301;48.310;12.786;2024-02-14T03:30:44;96731.72;;;5.63;83.04
50384;BME280;36301;48.310;12.786;2024-02-14T03:33:11;96734.03;;;5.56;83.17
50384;BME280;36301;48.310;12.786;2024-02-14T03:35:37;96733.59;;;5.63;82.70
50384;BME280;36301;48.310;12.786;2024-02-14T03:38:04;96734.91;;;5.78;81.60
50384;BME280;36301;48.310;12.786;2024-02-14T03:40:31;96736.13;;;5.80;80.36
50384;BME280;36301;48.310;12.786;2024-02-14T03:42:58;96734.44;;;5.76;80.82
50384;BME280;36301;48.310;12.786;2024-02-14T03:45:24;96739.28;;;5.65;80.54
50384;BME280;36301;48.310;12.786;2024-02-14T03:47:51;96737.09;;;5.67;81.27
50384;BME280;36301;48.310;12.786;2024-02-14T03:50:17;96732.94;;;5.66;79.84
50384;BME280;36301;48.310;12.786;2024-02-14T03:52:44;96734.53;;;5.58;81.11
50384;BME280;36301;48.310;12.786;2024-02-14T03:55:12;96735.03;;;5.81;79.60
50384;BME280;36301;48.310;12.786;2024-02-14T03:57:40;96743.41;;;5.83;79.25
50384;BME280;36301;48.310;12.786;2024-02-14T04:00:08;96728.41;;;5.84;78.53
50384;BME280;36301;48.310;12.786;2024-02-14T04:02:37;96746.47;;;5.85;78.80
50384;BME280;36301;48.310;12.786;2024-02-14T04:05:06;96745.56;;;5.81;79.01
50384;BME280;36301;48.310;12.786;2024-02-14T04:07:33;96740.03;;;5.65;80.04
50384;BME280;36301;48.310;12.786;2024-02-14T04:10:00;96741.47;;;5.63;79.89
50384;BME280;36301;48.310;12.786;2024-02-14T04:12:27;96743.53;;;5.31;80.69
50384;BME280;36301;48.310;12.786;2024-02-14T04:14:53;96738.84;;;5.63;80.43
50384;BME280;36301;48.310;12.786;2024-02-14T04:17:20;96748.66;;;5.10;80.76
50384;BME280;36301;48.310;12.786;2024-02-14T04:19:47;96749.84;;;5.39;81.69
50384;BME280;36301;48.310;12.786;2024-02-14T04:22:13;96743.69;;;5.35;81.01
50384;BME280;36301;48.310;12.786;2024-02-14T04:24:40;96749.25;;;5.25;81.53
50384;BME280;36301;48.310;12.786;2024-02-14T04:27:06;96748.31;;;5.29;81.36
50384;BME280;36301;48.310;12.786;2024-02-14T04:29:33;96744.97;;;5.03;81.96
50384;BME280;36301;48.310;12.786;2024-02-14T04:32:01;96751.59;;;5.17;81.66
50384;BME280;36301;48.310;12.786;2024-02-14T04:34:27;96732.31;;;4.87;82.40
50384;BME280;36301;48.310;12.786;2024-02-14T04:36:55;96743.25;;;4.98;82.46
50384;BME280;36301;48.310;12.786;2024-02-14T04:39:21;96743.72;;;5.00;83.20
50384;BME280;36301;48.310;12.786;2024-02-14T04:41:48;96741.84;;;5.01;82.74
50384;BME280;36301;48.310;12.786;2024-02-14T04:44:27;96733.84;;;4.97;83.30
50384;BME280;36301;48.310;12.786;2024-02-14T04:46:54;96731.84;;;4.94;83.52
50384;BME280;36301;48.310;12.786;2024-02-14T04:49:22;96735.69;;;4.97;83.25
50384;BME280;36301;48.310;12.786;2024-02-14T04:51:49;96722.88;;;4.86;83.38
50384;BME280;36301;48.310;12.786;2024-02-14T04:54:15;96734.78;;;4.92;83.42
50384;BME280;36301;48.310;12.786;2024-02-14T04:56:43;96727.84;;;4.88;83.79
50384;BME280;36301;48.310;12.786;2024-02-14T04:59:09;96731.69;;;4.82;83.12
50384;BME280;36301;48.310;12.786;2024-02-14T05:01:36;96727.66;;;4.76;84.19
50384;BME280;36301;48.310;12.786;2024-02-14T05:04:02;96733.06;;;4.79;83.18
50384;BME280;36301;48.310;12.786;2024-02-14T05:06:29;96738.94;;;4.85;82.74
50384;BME280;36301;48.310;12.786;2024-02-14T05:08:56;96735.09;;;4.82;83.35
50384;BME280;36301;48.310;12.786;2024-02-14T05:11:22;96737.09;;;4.77;82.76
50384;BME280;36301;48.310;12.786;2024-02-14T05:13:50;96734.75;;;4.75;82.74
50384;BME280;36301;48.310;12.786;2024-02-14T05:16:20;96733.38;;;4.69;82.50
50384;BME280;36301;48.310;12.786;2024-02-14T05:18:46;96732.28;;;4.53;82.87
50384;BME280;36301;48.310;12.786;2024-02-14T05:21:14;96722.88;;;4.43;83.76
50384;BME280;36301;48.310;12.786;2024-02-14T05:23:41;96726.69;;;4.28;84.16
50384;BME280;36301;48.310;12.786;2024-02-14T05:26:10;96711.78;;;4.46;83.15
50384;BME280;36301;48.310;12.786;2024-02-14T05:28:37;96724.56;;;4.39;83.81
50384;BME280;36301;48.310;12.786;2024-02-14T05:31:05;96712.22;;;4.39;83.74
50384;BME280;36301;48.310;12.786;2024-02-14T05:33:31;96722.41;;;4.58;83.84
50384;BME280;36301;48.310;12.786;2024-02-14T05:35:58;96720.56;;;4.76;82.70
50384;BME280;36301;48.310;12.786;2024-02-14T05:38:25;96725.66;;;4.90;81.53
50384;BME280;36301;48.310;12.786;2024-02-14T05:40:51;96730.44;;;4.71;81.65
50384;BME280;36301;48.310;12.786;2024-02-14T05:43:18;96727.34;;;4.86;81.14
50384;BME280;36301;48.310;12.786;2024-02-14T05:45:45;96742.50;;;4.72;80.88
50384;BME280;36301;48.310;12.786;2024-02-14T05:48:12;96740.19;;;4.61;83.10
50384;BME280;36301;48.310;12.786;2024-02-14T05:50:39;96735.53;;;4.67;82.71
50384;BME280;36301;48.310;12.786;2024-02-14T05:53:05;96736.31;;;4.85;82.62
50384;BME280;36301;48.310;12.786;2024-02-14T05:55:32;96737.09;;;4.85;82.37
50384;BME280;36301;48.310;12.786;2024-02-14T05:57:59;96732.59;;;4.86;82.97
50384;BME280;36301;48.310;12.786;2024-02-14T06:00:26;96735.69;;;5.14;80.85
50384;BME280;36301;48.310;12.786;2024-02-14T06:02:55;96735.03;;;5.17;80.54
50384;BME280;36301;48.310;12.786;2024-02-14T06:05:22;96734.44;;;5.11;80.97
50384;BME280;36301;48.310;12.786;2024-02-14T06:07:49;96744.63;;;4.52;84.75
50384;BME280;36301;48.310;12.786;2024-02-14T06:10:17;96744.78;;;4.64;82.01
50384;BME280;36301;48.310;12.786;2024-02-14T06:12:44;96750.31;;;4.46;84.47
50384;BME280;36301;48.310;12.786;2024-02-14T06:15:11;96745.56;;;3.99;83.58
50384;BME280;36301;48.310;12.786;2024-02-14T06:17:37;96748.47;;;4.46;84.20
50384;BME280;36301;48.310;12.786;2024-02-14T06:20:05;96755.56;;;4.46;83.74
50384;BME280;36301;48.310;12.786;2024-02-14T06:22:34;96746.97;;;4.80;81.90
50384;BME280;36301;48.310;12.786;2024-02-14T06:25:13;96749.59;;;4.88;80.70
50384;BME280;36301;48.310;12.786;2024-02-14T06:27:39;96747.44;;;4.99;80.19
50384;BME280;36301;48.310;12.786;2024-02-14T06:30:07;96750.66;;;5.05;79.51
50384;BME280;36301;48.310;12.786;2024-02-14T06:32:34;96754.84;;;4.97;80.00
50384;BME280;36301;48.310;12.786;2024-02-14T06:35:02;96760.22;;;5.01;79.66
50384;BME280;36301;48.310;12.786;2024-02-14T06:37:29;96757.75;;;5.04;79.80
50384;BME280;36301;48.310;12.786;2024-02-14T06:40:00;96763.63;;;4.84;81.29
50384;BME280;36301;48.310;12.786;2024-02-14T06:42:26;96755.13;;;5.04;80.01
50384;BME280;36301;48.310;12.786;2024-02-14T06:44:53;96763.75;;;5.31;79.20
50384;BME280;36301;48.310;12.786;2024-02-14T06:47:19;96768.69;;;5.41;78.47
50384;BME280;36301;48.310;12.786;2024-02-14T06:49:46;96759.59;;;5.38;78.29
50384;BME280;36301;48.310;12.786;2024-02-14T06:52:13;96755.53;;;5.50;78.13
50384;BME280;36301;48.310;12.786;2024-02-14T06:54:39;96763.56;;;5.53;78.48
50384;BME280;36301;48.310;12.786;2024-02-14T06:57:06;96767.84;;;5.75;78.03
50384;BME280;36301;48.310;12.786;2024-02-14T06:59:34;96776.50;;;5.67;77.95
50384;BME280;36301;48.310;12.786;2024-02-14T07:02:00;96776.22;;;5.68;78.37
50384;BME280;36301;48.310;12.786;2024-02-14T07:04:39;96788.56;;;5.68;78.34
50384;BME280;36301;48.310;12.786;2024-02-14T07:07:06;96786.72;;;5.60;78.45
50384;BME280;36301;48.310;12.786;2024-02-14T07:09:33;96798.09;;;5.81;77.58
50384;BME280;36301;48.310;12.786;2024-02-14T07:12:02;96793.44;;;5.87;77.15
50384;BME280;36301;48.310;12.786;2024-02-14T07:14:29;96788.03;;;6.01;76.68
50384;BME280;36301;48.310;12.786;2024-02-14T07:16:55;96788.91;;;6.13;76.03
50384;BME280;36301;48.310;12.786;2024-02-14T07:19:22;96791.38;;;6.18;75.84
50384;BME280;36301;48.310;12.786;2024-02-14T07:21:48;96793.66;;;6.29;74.95
50384;BME280;36301;48.310;12.786;2024-02-14T07:24:15;96796.88;;;6.34;74.08
50384;BME280;36301;48.310;12.786;2024-02-14T07:26:42;96792.50;;;6.38;74.63
50384;BME280;36301;48.310;12.786;2024-02-14T07:29:10;96799.44;;;6.13;74.94
50384;BME280;36301;48.310;12.786;2024-02-14T07:31:37;96794.47;;;6.12;76.18
50384;BME280;36301;48.310;12.786;2024-02-14T07:34:04;96800.31;;;6.17;76.26
50384;BME280;36301;48.310;12.786;2024-02-14T07:36:35;96805.06;;;6.33;75.20
50384;BME280;36301;48.310;12.786;2024-02-14T07:39:02;96811.34;;;6.49;74.81
50384;BME280;36301;48.310;12.786;2024-02-14T07:41:28;96805.44;;;6.52;74.39
50384;BME280;36301;48.310;12.786;2024-02-14T07:43:55;96814.59;;;6.75;73.43
50384;BME280;36301;48.310;12.786;2024-02-14T07:46:23;96816.56;;;6.79;73.59
50384;BME280;36301;48.310;12.786;2024-02-14T07:48:52;96815.22;;;7.14;72.60
50384;BME280;36301;48.310;12.786;2024-02-14T07:51:19;96813.44;;;7.27;71.72
50384;BME280;36301;48.310;12.786;2024-02-14T07:53:46;96793.31;;;7.76;71.44
50384;BME280;36301;48.310;12.786;2024-02-14T07:56:13;96811.59;;;8.30;67.93
50384;BME280;36301;48.310;12.786;2024-02-14T07:58:39;96808.50;;;7.92;68.33
50384;BME280;36301;48.310;12.786;2024-02-14T08:01:06;96821.19;;;7.77;69.35
50384;BME280;36301;48.310;12.786;2024-02-14T08:03:32;96830.50;;;7.75;69.59
50384;BME280;36301;48.310;12.786;2024-02-14T08:05:59;96815.16;;;7.44;70.57
50384;BME280;36301;48.310;12.786;2024-02-14T08:08:27;96818.88;;;7.43;71.46
50384;BME280;36301;48.310;12.786;2024-02-14T08:10:54;96824.97;;;7.35;71.06
50384;BME280;36301;48.310;12.786;2024-02-14T08:13:21;96820.50;;;7.35;70.74
50384;BME280;36301;48.310;12.786;2024-02-14T08:15:48;96830.88;;;7.52;70.83
50384;BME280;36301;48.310;12.786;2024-02-14T08:18:14;96836.91;;;7.53;71.36
50384;BME280;36301;48.310;12.786;2024-02-14T08:20:41;96843.13;;;7.36;71.67
50384;BME280;36301;48.310;12.786;2024-02-14T08:23:08;96840.00;;;7.34;71.75
50384;BME280;36301;48.310;12.786;2024-02-14T08:25:34;96839.22;;;7.54;71.32
50384;BME280;36301;48.310;12.786;2024-02-14T08:28:01;96840.47;;;7.69;70.28
50384;BME280;36301;48.310;12.786;2024-02-14T08:30:29;96849.84;;;7.46;70.08
50384;BME280;36301;48.310;12.786;2024-02-14T08:32:55;96847.97;;;7.79;69.61
50384;BME280;36301;48.310;12.786;2024-02-14T08:35:23;96839.09;;;7.84;68.86
50384;BME280;36301;48.310;12.786;2024-02-14T08:37:49;96842.75;;;7.92;68.50
50384;BME280;36301;48.310;12.786;2024-02-14T08:40:16;96837.91;;;7.94;67.49
50384;BME280;36301;48.310;12.786;2024-02-14T08:42:43;96836.44;;;8.29;68.36
50384;BME280;36301;48.310;12.786;2024-02-14T08:45:10;96840.53;;;8.51;67.06
50384;BME280;36301;48.310;12.786;2024-02-14T08:47:37;96842.88;;;8.53;65.95
50384;BME280;36301;48.310;12.786;2024-02-14T08:50:05;96845.06;;;8.63;65.28
50384;BME280;36301;48.310;12.786;2024-02-14T08:52:31;96837.03;;;7.90;67.64
50384;BME280;36301;48.310;12.786;2024-02-14T08:54:59;96850.13;;;7.98;67.49
50384;BME280;36301;48.310;12.786;2024-02-14T08:57:25;96848.13;;;8.41;65.20
50384;BME280;36301;48.310;12.786;2024-02-14T08:59:52;96858.69;;;8.41;66.76
50384;BME280;36301;48.310;12.786;2024-02-14T09:02:19;96856.59;;;8.46;67.50
50384;BME280;36301;48.310;12.786;2024-02-14T09:04:46;96852.31;;;8.78;66.34
50384;BME280;36301;48.310;12.786;2024-02-14T09:07:13;96857.34;;;8.71;65.57
50384;BME280;36301;48.310;12.786;2024-02-14T09:09:40;96854.94;;;8.91;65.26
50384;BME280;36301;48.310;12.786;2024-02-14T09:12:07;96854.91;;;9.15;64.54
50384;BME280;36301;48.310;12.786;2024-02-14T09:14:34;96850.69;;;9.26;63.88
50384;BME280;36301;48.310;12.786;2024-02-14T09:17:00;96859.66;;;9.38;62.51
50384;BME280;36301;48.310;12.786;2024-02-14T09:19:28;96859.59;;;9.22;62.71
50384;BME280;36301;48.310;12.786;2024-02-14T09:21:55;96854.56;;;9.17;62.77
50384;BME280;36301;48.310;12.786;2024-02-14T09:24:21;96857.66;;;9.19;62.27
50384;BME280;36301;48.310;12.786;2024-02-14T09:26:48;96857.53;;;9.55;62.75
50384;BME280;36301;48.310;12.786;2024-02-14T09:29:15;96847.81;;;9.59;61.88
50384;BME280;36301;48.310;12.786;2024-02-14T09:31:41;96859.72;;;9.81;60.25
50384;BME280;36301;48.310;12.786;2024-02-14T09:34:08;96854.81;;;9.96;61.11
50384;BME280;36301;48.310;12.786;2024-02-14T09:36:37;96857.91;;;9.70;59.30
50384;BME280;36301;48.310;12.786;2024-02-14T09:39:05;96862.09;;;9.71;59.75
50384;BME280;36301;48.310;12.786;2024-02-14T09:41:40;96851.50;;;9.43;60.46
50384;BME280;36301;48.310;12.786;2024-02-14T09:44:10;96856.19;;;9.61;59.81
50384;BME280;36301;48.310;12.786;2024-02-14T09:46:36;96862.97;;;9.75;60.25
50384;BME280;36301;48.310;12.786;2024-02-14T09:49:04;96861.38;;;9.86;59.11
50384;BME280;36301;48.310;12.786;2024-02-14T09:51:32;96859.69;;;9.94;60.01
50384;BME280;36301;48.310;12.786;2024-02-14T09:54:00;96856.69;;;9.95;60.16
50384;BME280;36301;48.310;12.786;2024-02-14T09:56:28;96859.56;;;9.74;56.91
50384;BME280;36301;48.310;12.786;2024-02-14T09:58:55;96858.75;;;10.02;57.97
50384;BME280;36301;48.310;12.786;2024-02-14T10:01:24;96859.25;;;10.07;57.98
50384;BME280;36301;48.310;12.786;2024-02-14T10:03:53;96857.41;;;10.71;56.82
50384;BME280;36301;48.310;12.786;2024-02-14T10:06:20;96861.25;;;10.74;55.73
50384;BME280;36301;48.310;12.786;2024-02-14T10:08:48;96852.69;;;10.96;56.12
50384;BME280;36301;48.310;12.786;2024-02-14T10:11:32;96854.50;;;10.76;56.38
50384;BME280;36301;48.310;12.786;2024-02-14T10:14:00;96856.59;;;11.02;57.07
50384;BME280;36301;48.310;12.786;2024-02-14T10:16:30;96853.44;;;11.32;56.67
50384;BME280;36301;48.310;12.786;2024-02-14T10:18:56;96860.72;;;11.19;56.72
50384;BME280;36301;48.310;12.786;2024-02-14T10:21:23;96863.53;;;10.91;56.74
50384;BME280;36301;48.310;12.786;2024-02-14T10:23:52;96869.69;;;10.79;57.94
50384;BME280;36301;48.310;12.786;2024-02-14T10:26:20;96874.69;;;10.65;60.18
50384;BME280;36301;48.310;12.786;2024-02-14T10:28:47;96870.75;;;10.59;61.59
50384;BME280;36301;48.310;12.786;2024-02-14T10:31:16;96872.38;;;10.48;63.22
50384;BME280;36301;48.310;12.786;2024-02-14T10:33:43;96869.47;;;10.37;63.17
50384;BME280;36301;48.310;12.786;2024-02-14T10:36:12;96862.66;;;10.08;65.02
50384;BME280;36301;48.310;12.786;2024-02-14T10:38:39;96856.59;;;10.51;64.10
50384;BME280;36301;48.310;12.786;2024-02-14T10:41:07;96866.06;;;10.52;64.11
50384;BME280;36301;48.310;12.786;2024-02-14T10:43:36;96845.41;;;10.42;64.13
50384;BME280;36301;48.310;12.786;2024-02-14T10:46:08;96860.34;;;10.66;64.54
50384;BME280;36301;48.310;12.786;2024-02-14T10:48:39;96848.38;;;10.72;62.34
50384;BME280;36301;48.310;12.786;2024-02-14T10:51:08;96855.88;;;10.86;63.92
50384;BME280;36301;48.310;12.786;2024-02-14T10:53:39;96849.44;;;10.87;64.65
50384;BME280;36301;48.310;12.786;2024-02-14T10:56:17;96839.84;;;10.98;63.70
50384;BME280;36301;48.310;12.786;2024-02-14T10:58:48;96843.06;;;11.07;61.78
50384;BME280;36301;48.310;12.786;2024-02-14T11:01:16;96834.97;;;11.00;61.93
50384;BME280;36301;48.310;12.786;2024-02-14T11:03:43;96834.75;;;11.09;60.50
50384;BME280;36301;48.310;12.786;2024-02-14T11:06:16;96830.00;;;10.99;60.49
50384;BME280;36301;48.310;12.786;2024-02-14T11:09:16;96825.69;;;11.10;60.35
50384;BME280;36301;48.310;12.786;2024-02-14T11:11:46;96822.38;;;11.13;61.33
50384;BME280;36301;48.310;12.786;2024-02-14T11:14:15;96831.19;;;11.36;58.73
50384;BME280;36301;48.310;12.786;2024-02-14T11:16:45;96820.56;;;11.17;58.93
50384;BME280;36301;48.310;12.786;2024-02-14T11:19:13;96814.06;;;10.79;58.92
50384;BME280;36301;48.310;12.786;2024-02-14T11:21:46;96813.44;;;11.02;59.12
50384;BME280;36301;48.310;12.786;2024-02-14T11:24:14;96821.44;;;10.86;58.25
50384;BME280;36301;48.310;12.786;2024-02-14T11:26:51;96813.59;;;11.48;57.80
50384;BME280;36301;48.310;12.786;2024-02-14T11:29:19;96810.38;;;11.58;56.32
50384;BME280;36301;48.310;12.786;2024-02-14T11:32:00;96805.06;;;11.58;56.38
50384;BME280;36301;48.310;12.786;2024-02-14T11:34:28;96809.50;;;11.92;55.86
50384;BME280;36301;48.310;12.786;2024-02-14T11:37:02;96812.16;;;11.73;55.81
50384;BME280;36301;48.310;12.786;2024-02-14T11:39:29;96814.44;;;11.94;55.32
50384;BME280;36301;48.310;12.786;2024-02-14T11:41:57;96807.03;;;11.61;54.61
50384;BME280;36301;48.310;12.786;2024-02-14T11:44:25;96815.50;;;11.89;54.08
50384;BME280;36301;48.310;12.786;2024-02-14T11:46:52;96815.66;;;11.97;53.72
50384;BME280;36301;48.310;12.786;2024-02-14T11:49:19;96809.09;;;12.13;53.74
50384;BME280;36301;48.310;12.786;2024-02-14T11:51:46;96804.72;;;12.25;52.86
50384;BME280;36301;48.310;12.786;2024-02-14T11:54:13;96804.28;;;12.45;52.90
50384;BME280;36301;48.310;12.786;2024-02-14T11:56:40;96805.66;;;12.36;51.47
50384;BME280;36301;48.310;12.786;2024-02-14T11:59:07;96798.28;;;12.49;52.26
50384;BME280;36301;48.310;12.786;2024-02-14T12:01:38;96801.19;;;12.17;51.63
50384;BME280;36301;48.310;12.786;2024-02-14T12:04:07;96793.75;;;12.26;51.07
50384;BME280;36301;48.310;12.786;2024-02-14T12:06:35;96794.16;;;12.05;50.33
50384;BME280;36301;48.310;12.786;2024-02-14T12:09:03;96795.88;;;12.17;51.05
50384;BME280;36301;48.310;12.786;2024-02-14T12:11:36;96793.63;;;12.42;50.21
50384;BME280;36301;48.310;12.786;2024-02-14T12:14:08;96789.63;;;12.29;50.42
50384;BME280;36301;48.310;12.786;2024-02-14T12:16:36;96784.69;;;12.27;51.06
50384;BME280;36301;48.310;12.786;2024-02-14T12:19:14;96780.44;;;12.49;51.53
50384;BME280;36301;48.310;12.786;2024-02-14T12:21:43;96780.22;;;12.61;50.87
50384;BME280;36301;48.310;12.786;2024-02-14T12:24:10;96773.69;;;12.55;50.19
50384;BME280;36301;48.310;12.786;2024-02-14T12:26:38;96777.78;;;12.76;51.17
50384;BME280;36301;48.310;12.786;2024-02-14T12:29:05;96774.59;;;12.40;52.03
50384;BME280;36301;48.310;12.786;2024-02-14T12:31:34;96775.13;;;12.49;51.30
50384;BME280;36301;48.310;12.786;2024-02-14T12:34:02;96771.09;;;12.59;51.25
50384;BME280;36301;48.310;12.786;2024-02-14T12:36:32;96775.59;;;12.28;52.88
50384;BME280;36301;48.310;12.786;2024-02-14T12:39:02;96772.84;;;12.48;52.05
50384;BME280;36301;48.310;12.786;2024-02-14T12:41:29;96786.00;;;12.67;51.52
50384;BME280;36301;48.310;12.786;2024-02-14T12:43:57;96772.28;;;13.21;49.87
50384;BME280;36301;48.310;12.786;2024-02-14T12:46:24;96772.91;;;13.11;50.59
50384;BME280;36301;48.310;12.786;2024-02-14T12:48:51;96780.19;;;13.48;50.08
50384;BME280;36301;48.310;12.786;2024-02-14T12:51:18;96761.75;;;13.29;50.61
50384;BME280;36301;48.310;12.786;2024-02-14T12:53:44;96764.88;;;13.38;50.57
50384;BME280;36301;48.310;12.786;2024-02-14T12:56:11;96759.94;;;13.36;50.19
50384;BME280;36301;48.310;12.786;2024-02-14T12:58:38;96766.00;;;13.33;48.72
50384;BME280;36301;48.310;12.786;2024-02-14T13:01:04;96752.25;;;13.65;48.55